Time;durP1;ratioP1;P1;durP2;ratioP2;P2;SDS_P1;SDS_P2;PMS_P1;PMS_P2;Temp;Humidity;BMP_temperature;BMP_pressure;BME280_temperature;BME280_humidity;BME280_pressure;Samples;Min_cycle;Max_cycle;Signal;HPM_P1;HPM_P2
2022/07/03 00:00:55;;;;;;;4.30;3.40;;;;;;;18.73;72.28;98829.44;5032954;27;102601;-73
2022/07/03 00:03:23;;;;;;;4.67;3.50;;;;;;;18.51;73.15;98822.78;5033527;27;103093;-72
2022/07/03 00:05:54;;;;;;;3.80;3.17;;;;;;;18.71;72.44;98824.25;5028330;27;103097;-72
2022/07/03 00:08:22;;;;;;;3.88;3.38;;;;;;;18.56;73.24;98830.34;5033306;27;103275;-72
2022/07/03 00:10:50;;;;;;;4.68;3.25;;;;;;;18.61;72.97;98833.41;5017941;27;102757;-72
2022/07/03 00:13:18;;;;;;;3.90;2.90;;;;;;;18.69;71.36;98836.13;5035595;27;103800;-73
2022/07/03 00:15:48;;;;;;;3.13;2.83;;;;;;;18.98;70.18;98833.91;5016240;27;103872;-72
2022/07/03 00:18:15;;;;;;;3.97;2.83;;;;;;;19.04;70.05;98830.59;5026731;27;103455;-72
2022/07/03 00:20:48;;;;;;;2.63;2.35;;;;;;;19.63;67.77;98826.97;5026459;27;103742;-72
2022/07/03 00:23:18;;;;;;;3.93;2.40;;;;;;;19.83;67.22;98832.84;5027024;27;104719;-72
2022/07/03 00:25:47;;;;;;;2.58;2.13;;;;;;;20.02;66.49;98835.22;5012830;27;104068;-72
2022/07/03 00:28:15;;;;;;;3.05;2.60;;;;;;;20.08;66.24;98832.72;5030730;27;104189;-72
2022/07/03 00:30:47;;;;;;;2.60;2.40;;;;;;;20.00;66.46;98838.06;5028793;27;102708;-72
2022/07/03 00:33:17;;;;;;;2.38;2.17;;;;;;;20.07;66.22;98833.69;5031832;27;102733;-72
2022/07/03 00:35:48;;;;;;;2.70;2.40;;;;;;;20.10;66.13;98828.00;5026175;27;104034;-72
2022/07/03 00:38:18;;;;;;;2.72;2.53;;;;;;;20.09;66.64;98834.41;5035407;27;103213;-72
2022/07/03 00:40:46;;;;;;;2.60;2.40;;;;;;;20.05;66.71;98835.72;5018335;27;102841;-73
2022/07/03 00:43:17;;;;;;;2.47;2.28;;;;;;;20.01;67.25;98829.03;5020335;27;104713;-73
2022/07/03 00:45:48;;;;;;;3.20;2.90;;;;;;;19.86;67.79;98827.16;5028159;27;104181;-72
2022/07/03 00:48:20;;;;;;;2.60;2.40;;;;;;;19.77;67.92;98828.16;5036486;27;103928;-72
2022/07/03 00:50:50;;;;;;;2.90;2.70;;;;;;;19.72;68.01;98825.97;5034311;27;102720;-72
2022/07/03 00:53:23;;;;;;;3.60;2.95;;;;;;;19.47;69.10;98830.47;5035653;27;102958;-72
2022/07/03 00:55:53;;;;;;;3.20;2.33;;;;;;;19.63;68.90;98833.16;5025763;27;103982;-73
2022/07/03 00:58:21;;;;;;;2.78;2.58;;;;;;;19.74;68.31;98823.97;5031313;27;103222;-73
2022/07/03 01:00:53;;;;;;;2.80;2.50;;;;;;;19.81;68.29;98830.34;5029262;27;102814;-73
2022/07/03 01:03:28;;;;;;;3.03;2.43;;;;;;;19.79;67.67;98834.22;5028643;27;104132;-73
2022/07/03 01:05:57;;;;;;;3.97;2.97;;;;;;;19.67;68.60;98831.84;5028549;27;103387;-71
2022/07/03 01:08:41;;;;;;;3.90;2.70;;;;;;;19.59;68.65;98831.00;5030549;27;103213;-71
2022/07/03 01:11:21;;;;;;;2.33;2.10;;;;;;;19.74;68.69;98834.69;5031329;27;102684;-71
2022/07/03 01:14:01;;;;;;;2.70;2.50;;;;;;;19.87;68.24;98836.91;5028228;27;103862;-72
2022/07/03 01:16:38;;;;;;;2.55;1.90;;;;;;;19.95;67.18;98843.09;5031091;27;103324;-72
2022/07/03 01:19:18;;;;;;;2.50;2.30;;;;;;;20.03;66.90;98835.06;5016224;27;103218;-72
2022/07/03 01:22:03;;;;;;;3.10;2.63;;;;;;;19.74;67.62;98829.31;5028149;27;102754;-71
2022/07/03 01:25:03;;;;;;;2.80;2.60;;;;;;;19.06;70.80;98826.75;5032553;27;103792;-71
2022/07/03 01:27:36;;;;;;;3.33;2.90;;;;;;;19.06;71.18;98828.59;5025552;27;103268;-71
2022/07/03 01:30:07;;;;;;;3.97;3.00;;;;;;;18.82;72.12;98826.66;5030148;27;103235;-71
2022/07/03 01:32:41;;;;;;;3.13;2.83;;;;;;;18.78;72.97;98829.81;5035000;27;102687;-71
2022/07/03 01:35:12;;;;;;;2.50;2.30;;;;;;;19.10;71.60;98824.59;5034799;27;102618;-71
2022/07/03 01:37:41;;;;;;;3.15;2.85;;;;;;;19.02;72.11;98821.91;5028241;27;104254;-72
2022/07/03 01:40:09;;;;;;;2.90;2.70;;;;;;;19.06;71.41;98818.72;5029090;27;103715;-71
2022/07/03 01:42:42;;;;;;;3.08;2.55;;;;;;;19.04;72.18;98815.38;5011012;27;102778;-72
2022/07/03 01:45:11;;;;;;;3.33;2.80;;;;;;;19.11;71.37;98821.75;5025318;27;103886;-72
2022/07/03 01:47:42;;;;;;;2.50;2.30;;;;;;;19.30;70.84;98819.81;5026503;27;104151;-71
2022/07/03 01:50:12;;;;;;;4.30;2.50;;;;;;;19.40;69.60;98818.69;5028425;27;103213;-71
2022/07/03 01:52:43;;;;;;;2.40;2.20;;;;;;;19.51;69.65;98817.56;5028371;27;102860;-71
2022/07/03 01:55:14;;;;;;;3.73;2.50;;;;;;;19.43;69.68;98825.56;5017458;27;103301;-71
2022/07/03 01:57:45;;;;;;;3.35;2.33;;;;;;;19.51;69.63;98822.91;5030978;27;103271;-72
2022/07/03 02:00:16;;;;;;;2.60;2.10;;;;;;;19.55;69.16;98822.44;5015474;27;102989;-71
2022/07/03 02:02:51;;;;;;;2.35;2.08;;;;;;;19.63;68.68;98816.25;5019351;27;102678;-72
2022/07/03 02:05:29;;;;;;;2.30;2.10;;;;;;;19.63;69.12;98822.44;5030924;27;104123;-72
2022/07/03 02:08:04;;;;;;;2.73;2.50;;;;;;;19.39;70.07;98819.72;5027618;27;104316;-71
2022/07/03 02:10:39;;;;;;;2.70;2.20;;;;;;;19.48;69.87;98818.72;5025849;27;103267;-71
2022/07/03 02:13:16;;;;;;;3.15;2.75;;;;;;;19.07;71.58;98820.41;5028806;27;102673;-71
2022/07/03 02:15:45;;;;;;;3.40;2.97;;;;;;;19.00;71.97;98819.38;5032117;27;103824;-72
2022/07/03 02:18:26;;;;;;;3.75;2.72;;;;;;;19.24;71.23;98812.44;5014007;27;103961;-72
2022/07/03 02:21:04;;;;;;;2.50;2.10;;;;;;;19.23;70.94;98808.09;5030057;27;103201;-75
2022/07/03 02:23:37;;;;;;;2.53;2.03;;;;;;;19.34;69.81;98807.78;5029115;27;102958;-72
2022/07/03 02:26:09;;;;;;;2.60;2.40;;;;;;;19.35;70.32;98812.97;5033091;27;103987;-71
2022/07/03 02:28:55;;;;;;;2.80;2.60;;;;;;;19.37;70.62;98815.50;5020287;27;104778;-72
2022/07/03 02:31:27;;;;;;;2.88;2.30;;;;;;;19.33;70.71;98814.13;5026719;27;103233;-72
2022/07/03 02:33:58;;;;;;;2.30;2.10;;;;;;;19.42;70.00;98813.19;5027740;27;102983;-72
2022/07/03 02:36:29;;;;;;;2.40;2.10;;;;;;;19.25;71.09;98806.09;5024444;27;102683;-72
2022/07/03 02:38:58;;;;;;;2.70;2.40;;;;;;;19.26;71.03;98813.09;5028135;27;103353;-72
2022/07/03 02:41:38;;;;;;;3.15;2.50;;;;;;;19.07;71.99;98808.84;5035030;27;103656;-72
2022/07/03 02:44:21;;;;;;;3.45;2.40;;;;;;;19.15;71.46;98813.41;5030806;27;103005;-72
2022/07/03 02:47:00;;;;;;;2.25;2.05;;;;;;;19.32;70.66;98812.44;5032260;27;102687;-71
2022/07/03 02:49:49;;;;;;;3.08;2.72;;;;;;;19.25;70.86;98817.66;5035153;27;103327;-72
2022/07/03 02:52:29;;;;;;;3.00;2.38;;;;;;;19.31;70.90;98816.16;5029860;27;103170;-71
2022/07/03 02:55:03;;;;;;;3.28;2.50;;;;;;;19.24;71.10;98812.44;5028914;27;102891;-72
2022/07/03 02:57:40;;;;;;;2.08;1.98;;;;;;;19.31;70.24;98822.31;5033671;27;104078;-72
2022/07/03 03:00:12;;;;;;;2.20;1.97;;;;;;;19.35;70.56;98818.31;5027332;27;103314;-71
2022/07/03 03:02:53;;;;;;;2.60;2.17;;;;;;;19.33;70.48;98822.19;5033995;27;103186;-72
2022/07/03 03:05:31;;;;;;;2.10;1.90;;;;;;;19.34;70.88;98815.81;5029392;27;102709;-71
2022/07/03 03:08:19;;;;;;;2.22;2.03;;;;;;;19.40;70.03;98825.91;5026539;27;103006;-71
2022/07/03 03:10:48;;;;;;;2.20;2.00;;;;;;;19.27;71.04;98825.50;5029808;27;104881;-72
2022/07/03 03:13:19;;;;;;;2.60;2.23;;;;;;;18.97;72.43;98830.41;5036548;27;103281;-71
2022/07/03 03:16:01;;;;;;;2.20;2.00;;;;;;;19.18;71.26;98826.47;5019563;27;102802;-72
2022/07/03 03:18:30;;;;;;;2.60;2.40;;;;;;;18.89;72.49;98833.03;5032393;27;103677;-72
2022/07/03 03:21:01;;;;;;;2.45;2.25;;;;;;;18.59;73.85;98836.22;5027513;27;103755;-71
2022/07/03 03:23:38;;;;;;;4.37;2.37;;;;;;;18.49;74.38;98835.50;5033235;27;103211;-72
2022/07/03 03:26:06;;;;;;;3.03;2.30;;;;;;;18.28;75.50;98843.00;5033287;27;102589;-71
2022/07/03 03:28:35;;;;;;;2.45;2.20;;;;;;;18.53;74.81;98839.53;5031484;27;104230;-71
2022/07/03 03:31:08;;;;;;;2.25;2.05;;;;;;;18.94;72.78;98843.28;5029430;27;103253;-71
2022/07/03 03:33:40;;;;;;;1.90;1.70;;;;;;;19.13;71.87;98839.50;5027605;27;103307;-72
2022/07/03 03:36:09;;;;;;;2.03;1.90;;;;;;;19.21;71.48;98837.69;5015301;27;102886;-72
2022/07/03 03:38:38;;;;;;;2.90;2.30;;;;;;;19.18;71.82;98838.03;5031834;27;102669;-71
2022/07/03 03:41:07;;;;;;;2.15;2.00;;;;;;;19.14;72.04;98849.22;5015216;27;104239;-72
2022/07/03 03:43:44;;;;;;;2.00;1.80;;;;;;;19.19;71.51;98839.72;5015487;27;104739;-72
2022/07/03 03:46:14;;;;;;;1.90;1.80;;;;;;;19.23;71.13;98841.03;5028696;27;102862;-71
2022/07/03 03:48:43;;;;;;;2.30;2.10;;;;;;;19.13;72.11;98844.88;5014870;27;103802;-72
2022/07/03 03:51:12;;;;;;;2.72;2.53;;;;;;;18.12;76.58;98853.56;5029866;27;103735;-69
2022/07/03 03:53:41;;;;;;;2.97;2.33;;;;;;;18.15;76.57;98855.94;5010792;27;103183;-69
2022/07/03 03:56:12;;;;;;;2.42;2.22;;;;;;;18.54;75.23;98859.94;5030356;27;102819;-69
2022/07/03 03:58:41;;;;;;;2.72;2.50;;;;;;;18.47;75.29;98848.13;5032719;27;102698;-69
2022/07/03 04:01:10;;;;;;;3.38;2.38;;;;;;;18.76;74.42;98854.06;5029209;27;103235;-72
2022/07/03 04:03:41;;;;;;;3.10;2.30;;;;;;;18.77;74.65;98855.75;5020092;27;103455;-72
2022/07/03 04:06:19;;;;;;;2.40;2.20;;;;;;;18.78;74.27;98854.72;5019753;27;102827;-72
2022/07/03 04:08:47;;;;;;;2.33;2.08;;;;;;;18.67;75.64;98863.03;5017599;27;102766;-69
2022/07/03 04:11:15;;;;;;;2.07;1.87;;;;;;;19.02;73.68;98857.53;5033230;27;104403;-69
2022/07/03 04:13:43;;;;;;;3.00;2.03;;;;;;;19.19;73.32;98854.94;5027446;27;103190;-70
2022/07/03 04:16:11;;;;;;;2.60;1.98;;;;;;;19.27;72.91;98841.56;5026688;27;102671;-68
2022/07/03 04:18:41;;;;;;;4.20;2.45;;;;;;;18.98;74.59;98848.16;5018139;27;104139;-69
2022/07/03 04:21:11;;;;;;;2.22;1.90;;;;;;;19.22;73.37;98849.25;5027853;27;104306;-69
2022/07/03 04:23:39;;;;;;;4.57;2.13;;;;;;;19.31;72.88;98853.66;5027350;27;103570;-69
2022/07/03 04:26:07;;;;;;;3.20;1.92;;;;;;;19.28;73.38;98851.28;5031335;27;102717;-69
2022/07/03 04:28:44;;;;;;;3.10;2.30;;;;;;;19.42;73.39;98861.41;5031121;27;103035;-69
2022/07/03 04:31:13;;;;;;;3.50;1.73;;;;;;;19.51;73.03;98855.06;5027113;27;103370;-69
2022/07/03 04:33:42;;;;;;;2.23;1.90;;;;;;;19.58;72.86;98862.31;5031003;27;103188;-69
2022/07/03 04:36:14;;;;;;;3.75;2.25;;;;;;;19.63;72.16;98864.47;5010080;27;103098;-70
2022/07/03 04:38:43;;;;;;;3.90;2.20;;;;;;;19.56;72.92;98876.88;5029758;27;102765;-69
2022/07/03 04:41:11;;;;;;;3.50;2.20;;;;;;;19.63;73.00;98875.19;5027206;27;103298;-70
2022/07/03 04:43:39;;;;;;;2.08;1.70;;;;;;;19.76;71.98;98880.91;5025915;27;103305;-69
2022/07/03 04:46:06;;;;;;;2.35;1.80;;;;;;;19.88;71.77;98884.97;5033687;27;103650;-70
2022/07/03 04:48:34;;;;;;;2.45;1.90;;;;;;;19.98;71.41;98888.34;5029169;27;102798;-69
2022/07/03 04:51:04;;;;;;;2.42;1.80;;;;;;;20.05;70.95;98881.31;5033893;27;103785;-70
2022/07/03 04:53:32;;;;;;;2.75;1.80;;;;;;;20.10;71.51;98894.22;5017679;27;104261;-69
2022/07/03 04:55:59;;;;;;;2.90;1.80;;;;;;;20.15;71.24;98881.16;5028673;27;102603;-69
2022/07/03 04:58:27;;;;;;;2.40;1.90;;;;;;;20.18;71.52;98888.88;5026910;27;103047;-69
2022/07/03 05:00:55;;;;;;;2.05;1.77;;;;;;;20.20;70.83;98885.03;5026871;27;104148;-70
2022/07/03 05:03:23;;;;;;;1.95;1.52;;;;;;;20.30;70.49;98890.22;5028908;27;103747;-70
2022/07/03 05:05:52;;;;;;;3.40;1.90;;;;;;;20.35;70.67;98892.44;5021727;27;102950;-70
2022/07/03 05:08:21;;;;;;;3.17;1.85;;;;;;;20.43;70.27;98889.75;5023324;27;102991;-70
2022/07/03 05:10:49;;;;;;;2.00;1.80;;;;;;;20.50;70.22;98891.56;5013516;27;104465;-71
2022/07/03 05:13:17;;;;;;;2.67;1.87;;;;;;;20.51;70.85;98889.75;5027699;27;103215;-70
2022/07/03 05:15:45;;;;;;;2.50;1.60;;;;;;;20.58;70.38;98888.03;5026310;27;102694;-70
2022/07/03 05:18:12;;;;;;;1.90;1.70;;;;;;;20.68;70.16;98894.94;5007719;27;102823;-70
2022/07/03 05:20:48;;;;;;;3.15;2.00;;;;;;;20.76;69.88;98892.22;5025238;27;104065;-68
2022/07/03 05:23:16;;;;;;;2.15;1.88;;;;;;;20.81;69.95;98895.22;5027016;27;103264;-69
2022/07/03 05:25:45;;;;;;;3.00;1.83;;;;;;;20.83;69.89;98889.69;5008640;27;102712;-70
2022/07/03 05:28:13;;;;;;;2.65;2.00;;;;;;;20.60;70.72;98891.41;5021988;27;103742;-70
2022/07/03 05:30:42;;;;;;;3.25;1.92;;;;;;;20.71;70.46;98899.13;5022343;27;103673;-70
2022/07/03 05:33:10;;;;;;;2.83;1.80;;;;;;;20.92;70.18;98894.03;5024223;27;103143;-69
2022/07/03 05:35:38;;;;;;;3.83;2.08;;;;;;;20.72;70.38;98898.09;5025213;27;103838;-71
2022/07/03 05:38:06;;;;;;;2.15;1.90;;;;;;;20.98;69.30;98890.66;5008205;27;102781;-71
2022/07/03 05:40:34;;;;;;;2.20;1.90;;;;;;;21.18;69.79;98891.13;5009163;27;104041;-70
2022/07/03 05:43:03;;;;;;;2.42;2.00;;;;;;;21.26;69.48;98900.00;5030631;27;103385;-72
2022/07/03 05:45:31;;;;;;;1.90;1.80;;;;;;;21.41;68.77;98901.97;5027065;27;103554;-72
2022/07/03 05:47:59;;;;;;;2.58;1.70;;;;;;;21.45;68.73;98901.44;5028978;27;103872;-71
2022/07/03 05:50:29;;;;;;;1.90;1.80;;;;;;;21.65;68.30;98899.16;5028515;27;103317;-71
2022/07/03 05:52:57;;;;;;;1.83;1.70;;;;;;;21.71;68.50;98896.63;5025180;27;103235;-71
2022/07/03 05:55:25;;;;;;;2.10;1.80;;;;;;;21.84;67.91;98888.78;5027189;27;102756;-70
2022/07/03 05:57:53;;;;;;;3.40;2.28;;;;;;;21.62;68.31;98889.59;5027846;27;103663;-71
2022/07/03 06:00:22;;;;;;;2.73;2.07;;;;;;;21.73;67.80;98885.66;5028093;27;103657;-71
2022/07/03 06:02:52;;;;;;;2.25;1.83;;;;;;;22.04;67.24;98883.81;5027101;27;104018;-71
2022/07/03 06:05:22;;;;;;;1.97;1.70;;;;;;;22.18;66.82;98891.13;5007572;27;102769;-71
2022/07/03 06:07:50;;;;;;;3.00;2.00;;;;;;;22.17;67.16;98886.78;5014194;27;104199;-71
2022/07/03 06:10:18;;;;;;;2.40;1.67;;;;;;;22.25;66.49;98891.25;5030949;27;103277;-70
2022/07/03 06:12:46;;;;;;;1.90;1.80;;;;;;;22.29;66.34;98887.16;5014687;27;103958;-71
2022/07/03 06:15:14;;;;;;;1.80;1.70;;;;;;;22.40;65.94;98890.25;5031981;27;103073;-71
2022/07/03 06:17:44;;;;;;;2.20;2.00;;;;;;;22.36;66.31;98888.97;5015490;27;104261;-72
2022/07/03 06:20:13;;;;;;;2.17;2.00;;;;;;;22.38;66.02;98888.78;5033352;27;103811;-71
2022/07/03 06:22:41;;;;;;;2.97;2.00;;;;;;;22.39;66.33;98883.22;5031398;27;103223;-71
2022/07/03 06:25:09;;;;;;;4.45;1.90;;;;;;;22.00;67.15;98889.75;5013389;27;102698;-71
2022/07/03 06:27:37;;;;;;;1.70;1.60;;;;;;;22.51;65.86;98881.75;5031638;27;103841;-71
2022/07/03 06:30:06;;;;;;;1.67;1.58;;;;;;;22.89;65.48;98879.06;5030568;27;103295;-71
2022/07/03 06:32:34;;;;;;;1.70;1.60;;;;;;;22.84;65.39;98881.47;5030411;27;103027;-71
2022/07/03 06:35:04;;;;;;;3.33;2.10;;;;;;;22.73;65.68;98880.09;5025911;27;103044;-73
2022/07/03 06:37:32;;;;;;;3.70;1.80;;;;;;;22.94;65.49;98874.81;5030094;27;104069;-72
2022/07/03 06:40:00;;;;;;;2.77;1.87;;;;;;;22.73;65.37;98885.47;5032096;27;104044;-71
2022/07/03 06:42:30;;;;;;;2.15;1.95;;;;;;;22.90;65.19;98878.06;5025543;27;104237;-72
2022/07/03 06:45:02;;;;;;;2.20;1.90;;;;;;;23.10;64.85;98885.38;5020944;27;102936;-71
2022/07/03 06:47:30;;;;;;;2.20;1.80;;;;;;;23.39;64.32;98881.88;5035102;27;103773;-71
2022/07/03 06:49:58;;;;;;;2.10;1.90;;;;;;;23.11;64.12;98883.53;5029199;27;104404;-71
2022/07/03 06:52:27;;;;;;;2.00;1.80;;;;;;;23.22;63.81;98883.06;5032258;27;103633;-71
2022/07/03 06:54:55;;;;;;;2.03;1.80;;;;;;;23.43;63.69;98885.88;5030400;27;102727;-71
2022/07/03 06:57:23;;;;;;;1.70;1.60;;;;;;;23.19;63.74;98891.53;5027987;27;103010;-76
2022/07/03 06:59:51;;;;;;;2.05;1.70;;;;;;;23.69;62.95;98885.38;5032934;27;104556;-75
2022/07/03 07:02:19;;;;;;;2.37;1.60;;;;;;;23.73;62.41;98891.22;5032116;27;103190;-76
2022/07/03 07:04:47;;;;;;;3.08;2.10;;;;;;;23.84;62.65;98893.41;5029500;27;103156;-75
2022/07/03 07:07:15;;;;;;;2.55;1.70;;;;;;;24.20;62.39;98887.00;5032981;27;102709;-75
2022/07/03 07:09:44;;;;;;;2.77;1.80;;;;;;;24.47;61.41;98882.69;5028094;27;103276;-75
2022/07/03 07:12:13;;;;;;;3.33;1.70;;;;;;;24.81;60.59;98892.75;5018834;27;103875;-76
2022/07/03 07:14:40;;;;;;;2.28;1.60;;;;;;;24.51;61.16;98894.75;5029922;27;102838;-76
2022/07/03 07:17:08;;;;;;;2.05;1.75;;;;;;;24.79;60.41;98889.38;5015212;27;104149;-76
2022/07/03 07:19:36;;;;;;;2.35;1.80;;;;;;;24.82;60.91;98890.88;5031555;27;104109;-76
2022/07/03 07:22:04;;;;;;;2.00;1.77;;;;;;;25.03;59.63;98893.53;5028675;27;103207;-76
2022/07/03 07:24:32;;;;;;;5.13;1.73;;;;;;;24.95;60.02;98890.97;5029332;27;102902;-76
2022/07/03 07:27:05;;;;;;;1.48;1.38;;;;;;;25.36;58.88;98887.28;5030750;27;104116;-76
2022/07/03 07:29:33;;;;;;;2.60;1.73;;;;;;;25.45;58.95;98893.34;5025794;27;103225;-76
2022/07/03 07:32:01;;;;;;;2.80;1.80;;;;;;;25.65;56.90;98888.06;5031499;27;103338;-75
2022/07/03 07:34:29;;;;;;;1.60;1.50;;;;;;;25.94;57.21;98885.03;5013023;27;102955;-76
2022/07/03 07:36:57;;;;;;;1.67;1.58;;;;;;;26.25;56.59;98895.31;5032845;27;103904;-75
2022/07/03 07:39:24;;;;;;;1.55;1.45;;;;;;;26.70;55.35;98894.53;5025175;27;104918;-75
2022/07/03 07:41:52;;;;;;;1.52;1.40;;;;;;;26.88;54.32;98897.50;5031216;27;103196;-76
2022/07/03 07:44:21;;;;;;;1.88;1.63;;;;;;;26.74;55.14;98901.22;5012966;27;102754;-75
2022/07/03 07:46:50;;;;;;;2.80;1.45;;;;;;;27.15;53.72;98897.44;5012001;27;103083;-83
2022/07/03 07:49:18;;;;;;;1.80;1.70;;;;;;;27.32;54.20;98891.34;5032814;27;104256;-82
2022/07/03 07:51:46;;;;;;;2.13;1.40;;;;;;;27.56;53.67;98896.13;5017580;27;104247;-82
2022/07/03 07:54:14;;;;;;;1.23;1.13;;;;;;;28.01;51.67;98886.09;5025073;27;102884;-86
2022/07/03 07:56:42;;;;;;;1.48;1.30;;;;;;;28.47;50.61;98882.22;5041878;27;102773;-82
2022/07/03 07:59:10;;;;;;;2.53;1.58;;;;;;;28.12;50.03;98890.00;5036414;27;103379;-81
2022/07/03 08:07:10;;;;;;;2.15;1.20;;;;;;;29.44;47.08;98879.69;5040260;27;102931;-82
2022/07/03 08:09:37;;;;;;;1.48;1.23;;;;;;;29.00;46.34;98877.19;5039767;27;104251;-81
2022/07/03 08:12:06;;;;;;;3.17;1.40;;;;;;;28.66;46.88;98870.44;5018363;27;103240;-81
2022/07/03 08:14:34;;;;;;;1.73;1.20;;;;;;;29.61;45.98;98872.59;5035537;27;103049;-81
2022/07/03 08:17:03;;;;;;;1.50;1.13;;;;;;;29.41;45.20;98868.44;5025585;27;104475;-77
2022/07/03 08:19:31;;;;;;;1.20;1.10;;;;;;;30.25;44.46;98866.47;5025300;27;104062;-75
2022/07/03 08:21:59;;;;;;;1.37;1.07;;;;;;;30.38;43.60;98870.91;5029893;27;103512;-76
2022/07/03 08:24:27;;;;;;;1.63;1.20;;;;;;;30.99;41.96;98862.38;5022247;27;102858;-76
2022/07/03 08:26:55;;;;;;;2.20;1.20;;;;;;;30.94;42.41;98865.78;5031659;27;103713;-76
2022/07/03 08:29:27;;;;;;;1.30;1.02;;;;;;;30.59;43.50;98872.25;5030225;27;103748;-76
2022/07/03 08:32:04;;;;;;;1.98;1.05;;;;;;;31.13;45.16;98869.22;5033874;27;103336;-76
2022/07/03 08:34:32;;;;;;;2.80;1.10;;;;;;;31.78;45.02;98866.25;5028842;27;103359;-76
2022/07/03 08:37:00;;;;;;;1.50;1.02;;;;;;;31.42;40.91;98859.22;5027514;27;104331;-76
2022/07/03 08:39:28;;;;;;;1.83;0.60;;;;;;;30.62;35.84;98860.91;5028973;27;103314;-76
2022/07/03 08:41:57;;;;;;;1.30;0.60;;;;;;;32.19;35.89;98855.06;5032336;27;103435;-76
2022/07/03 08:44:25;;;;;;;1.20;0.50;;;;;;;32.59;34.18;98852.25;5045819;27;102708;-76
2022/07/03 08:46:56;;;;;;;1.20;0.70;;;;;;;32.22;34.56;98851.84;5029584;27;102857;-76
2022/07/03 08:49:26;;;;;;;0.77;0.68;;;;;;;32.31;35.83;98850.34;5034545;27;104002;-76
2022/07/03 08:51:55;;;;;;;1.60;0.70;;;;;;;32.69;35.06;98853.22;5028985;27;103267;-76
2022/07/03 08:54:26;;;;;;;1.40;0.57;;;;;;;33.61;35.44;98844.44;5015572;27;102897;-76
2022/07/03 08:56:57;;;;;;;1.33;0.60;;;;;;;33.94;33.95;98837.97;5028767;27;102798;-76
2022/07/03 08:59:27;;;;;;;0.90;0.60;;;;;;;33.70;33.16;98849.22;5028906;27;103302;-76
2022/07/03 09:01:55;;;;;;;1.10;0.60;;;;;;;32.74;32.99;98852.47;5032876;27;103217;-77
2022/07/03 09:04:23;;;;;;;1.70;0.70;;;;;;;32.89;33.71;98846.41;5035134;27;102811;-76
2022/07/03 09:06:56;;;;;;;1.10;0.70;;;;;;;32.97;32.74;98854.19;5034739;27;102898;-76
2022/07/03 09:09:24;;;;;;;1.10;0.70;;;;;;;32.77;31.59;98848.41;5028024;27;104804;-76
2022/07/03 09:11:53;;;;;;;0.70;0.70;;;;;;;32.47;33.06;98844.09;5028486;27;103363;-76
2022/07/03 09:14:21;;;;;;;1.08;0.80;;;;;;;32.64;32.98;98842.22;5036400;27;102883;-76
2022/07/03 09:16:50;;;;;;;1.02;0.57;;;;;;;33.58;34.22;98848.53;5034135;27;102789;-76
2022/07/03 09:19:40;;;;;;;0.80;0.70;;;;;;;32.62;31.20;98843.53;5027020;27;104318;-76
2022/07/03 09:22:20;;;;;;;0.80;0.60;;;;;;;33.40;33.12;98846.09;5015863;27;103220;-76
2022/07/03 09:24:48;;;;;;;0.50;0.50;;;;;;;33.75;34.01;98841.06;5030152;27;102737;-76
2022/07/03 09:27:18;;;;;;;1.00;0.60;;;;;;;33.39;33.42;98844.41;5027783;27;102895;-76
2022/07/03 09:30:09;;;;;;;0.68;0.50;;;;;;;34.54;32.71;98849.53;5013292;27;103129;-76
2022/07/03 09:32:44;;;;;;;0.80;0.70;;;;;;;34.30;31.80;98842.75;5033665;27;103188;-76
2022/07/03 09:35:19;;;;;;;2.08;0.60;;;;;;;33.20;33.28;98838.44;5028779;27;102642;-76
2022/07/03 09:37:55;;;;;;;1.30;0.50;;;;;;;32.32;31.13;98845.72;5030579;27;102669;-75
2022/07/03 09:40:24;;;;;;;2.30;0.70;;;;;;;32.56;32.72;98837.13;5016565;27;104443;-76
2022/07/03 09:43:00;;;;;;;1.25;0.60;;;;;;;33.88;32.46;98833.53;5029430;27;102909;-76
2022/07/03 09:45:28;;;;;;;0.65;0.60;;;;;;;33.37;32.72;98838.38;5018856;27;102992;-76
2022/07/03 09:47:57;;;;;;;1.58;0.70;;;;;;;33.93;32.78;98839.91;5028107;27;103647;-76
2022/07/03 09:50:44;;;;;;;0.90;0.70;;;;;;;34.17;31.85;98843.16;5033363;27;103755;-76
2022/07/03 09:53:14;;;;;;;1.60;0.60;;;;;;;33.63;32.65;98837.63;5038843;27;103161;-76
2022/07/03 09:55:56;;;;;;;1.52;0.70;;;;;;;33.91;33.19;98828.34;5032496;27;102709;-76
2022/07/03 09:58:24;;;;;;;0.93;0.57;;;;;;;34.09;32.44;98833.50;5029115;27;104115;-76
2022/07/03 10:00:52;;;;;;;1.10;0.70;;;;;;;34.66;32.20;98833.78;5025494;27;103343;-76
2022/07/03 10:03:21;;;;;;;1.48;0.60;;;;;;;34.73;32.33;98831.63;5031771;27;103220;-76
2022/07/03 10:05:49;;;;;;;0.60;0.60;;;;;;;33.91;32.79;98822.84;5030662;27;102594;-76
2022/07/03 10:08:23;;;;;;;1.40;0.70;;;;;;;33.02;33.13;98829.63;5039863;27;104145;-76
2022/07/03 10:10:51;;;;;;;1.25;0.70;;;;;;;34.21;33.00;98834.19;5032374;27;103299;-76
2022/07/03 10:13:22;;;;;;;1.40;0.70;;;;;;;33.72;33.38;98830.63;5031973;27;103343;-76
2022/07/03 10:15:51;;;;;;;3.25;0.80;;;;;;;34.19;31.96;98821.81;5036743;27;102734;-76
2022/07/03 10:18:23;;;;;;;1.40;0.73;;;;;;;34.59;32.11;98827.66;5031022;27;103920;-76
2022/07/03 10:20:51;;;;;;;1.90;0.60;;;;;;;34.40;31.34;98823.66;5039684;27;103267;-76
2022/07/03 10:23:24;;;;;;;0.80;0.50;;;;;;;34.86;32.82;98811.97;5015096;27;104360;-76
2022/07/03 10:25:52;;;;;;;1.50;0.70;;;;;;;35.53;31.98;98816.72;5032571;27;103021;-75
2022/07/03 10:28:20;;;;;;;0.90;0.60;;;;;;;35.57;31.36;98819.81;5032169;27;104141;-76
2022/07/03 10:30:49;;;;;;;1.40;0.60;;;;;;;34.83;31.89;98820.72;5034156;27;103323;-76
2022/07/03 10:33:17;;;;;;;1.50;0.70;;;;;;;33.19;31.69;98824.97;5023346;27;104126;-76
2022/07/03 10:35:52;;;;;;;1.20;0.60;;;;;;;33.12;31.67;98813.41;5028128;27;102895;-76
2022/07/03 10:38:36;;;;;;;1.40;0.75;;;;;;;34.46;33.10;98814.38;5016747;27;103704;-76
2022/07/03 10:46:50;;;;;;;1.00;0.70;;;;;;;34.71;32.92;98813.78;5036768;27;102625;-76
2022/07/03 10:49:25;;;;;;;1.55;0.73;;;;;;;33.83;33.07;98807.72;5013718;27;104338;-76
2022/07/03 10:51:56;;;;;;;1.60;0.80;;;;;;;33.12;34.08;98802.47;5034386;27;104226;-76
2022/07/03 10:54:27;;;;;;;1.00;0.70;;;;;;;33.71;34.86;98808.97;5011295;27;103206;-75
2022/07/03 10:57:18;;;;;;;1.40;0.80;;;;;;;33.50;35.68;98805.13;5029616;27;102995;-76
2022/07/03 11:00:15;;;;;;;1.73;0.80;;;;;;;33.83;33.12;98803.34;5037385;27;102744;-76
2022/07/03 11:02:45;;;;;;;1.20;0.70;;;;;;;34.32;33.57;98793.97;5034262;27;103533;-79
2022/07/03 11:05:24;;;;;;;2.88;0.82;;;;;;;33.72;33.27;98796.91;5035578;27;103289;-76
2022/07/03 11:08:15;;;;;;;2.73;0.90;;;;;;;33.64;33.81;98795.47;5031489;27;102866;-76
2022/07/03 11:10:45;;;;;;;1.17;0.80;;;;;;;33.01;33.10;98790.50;5035360;27;102750;-77
2022/07/03 11:13:20;;;;;;;2.03;0.75;;;;;;;33.33;34.53;98793.41;5008362;27;103116;-78
2022/07/03 11:15:51;;;;;;;2.28;0.82;;;;;;;33.30;33.35;98782.97;5015394;27;103380;-77
2022/07/03 11:18:31;;;;;;;1.88;0.85;;;;;;;32.95;34.64;98785.22;5031551;27;103492;-74
2022/07/03 11:21:25;;;;;;;0.70;0.70;;;;;;;33.21;34.76;98779.84;5011695;27;102891;-75
2022/07/03 11:24:14;;;;;;;1.58;0.90;;;;;;;32.98;34.09;98773.78;5030923;27;103632;-71
2022/07/03 11:26:43;;;;;;;0.88;0.85;;;;;;;33.50;33.10;98766.78;5030515;27;103193;-76
2022/07/03 11:29:27;;;;;;;2.20;0.80;;;;;;;34.52;31.61;98776.84;5035608;27;102753;-78
2022/07/03 11:31:55;;;;;;;1.20;0.77;;;;;;;34.43;32.88;98771.03;5013374;27;102933;-73
2022/07/03 11:34:23;;;;;;;2.90;0.80;;;;;;;33.18;33.20;98769.41;5028467;27;104050;-74
2022/07/03 11:36:51;;;;;;;0.80;0.80;;;;;;;33.45;33.83;98764.00;5012386;27;104192;-75
2022/07/03 11:39:21;;;;;;;0.93;0.68;;;;;;;33.45;34.26;98764.00;5034445;27;104061;-81
2022/07/03 11:41:51;;;;;;;1.57;0.80;;;;;;;32.21;35.16;98770.94;5035081;27;104231;-80
2022/07/03 11:44:21;;;;;;;1.45;0.88;;;;;;;33.37;33.79;98767.19;5032120;27;103648;-83
2022/07/03 11:46:53;;;;;;;2.60;1.03;;;;;;;32.69;34.58;98762.97;5039397;27;103315;-83
2022/07/03 11:49:25;;;;;;;1.77;0.85;;;;;;;32.98;35.69;98754.63;5042735;27;102869;-80
2022/07/03 11:51:58;;;;;;;2.20;1.05;;;;;;;33.16;34.25;98759.81;5037919;27;102729;-79
2022/07/03 11:54:31;;;;;;;1.40;0.77;;;;;;;34.27;33.75;98750.06;5018058;27;104029;-79